Time;durP1;ratioP1;P1;durP2;ratioP2;P2;SDS_P1;SDS_P2;PMS_P1;PMS_P2;Temp;Humidity;BMP_temperature;BMP_pressure;BME280_temperature;BME280_humidity;BME280_pressure;Samples;Min_cycle;Max_cycle;Signal;HPM_P1;HPM_P2
2023/01/20 00:01:27;;;;;;;15.38;10.35;;;;;2.30;97857.00;;;;4840348;29;20060;-61
2023/01/20 00:03:55;;;;;;;17.20;9.80;;;;;2.30;97865.00;;;;4840611;29;20114;-61
2023/01/20 00:06:22;;;;;;;16.77;10.32;;;;;2.30;97853.00;;;;4854067;29;20050;-61
2023/01/20 00:08:53;;;;;;;17.40;10.55;;;;;2.30;97864.00;;;;4840404;29;20110;-61
2023/01/20 00:11:20;;;;;;;17.95;10.75;;;;;2.20;97868.00;;;;4840405;29;20046;-61
2023/01/20 00:13:47;;;;;;;20.83;11.60;;;;;2.20;97868.00;;;;4841051;29;20196;-61
2023/01/20 00:16:13;;;;;;;16.73;10.95;;;;;2.10;97870.00;;;;4840528;29;20050;-61
2023/01/20 00:18:40;;;;;;;18.67;10.90;;;;;2.10;97868.00;;;;4841035;29;20046;-61
2023/01/20 00:21:12;;;;;;;17.95;10.40;;;;;2.10;97865.00;;;;4839855;29;20496;-61
2023/01/20 00:23:39;;;;;;;15.88;10.57;;;;;1.90;97878.00;;;;4841046;29;20058;-61
2023/01/20 00:26:15;;;;;;;14.20;10.40;;;;;1.80;97877.00;;;;4839254;29;20056;-61
2023/01/20 00:28:42;;;;;;;17.33;9.45;;;;;1.90;97876.00;;;;4840604;29;20428;-61
2023/01/20 00:31:09;;;;;;;17.67;11.45;;;;;1.90;97876.00;;;;4854804;29;20050;-61
2023/01/20 00:33:36;;;;;;;12.75;9.40;;;;;1.90;97878.00;;;;4854631;29;20392;-61
2023/01/20 00:36:03;;;;;;;11.60;8.73;;;;;1.90;97885.00;;;;4843103;29;20057;-61
2023/01/20 00:38:29;;;;;;;16.27;9.95;;;;;1.90;97881.00;;;;4843800;29;20067;-61
2023/01/20 00:40:56;;;;;;;16.55;10.10;;;;;1.90;97889.00;;;;4843803;29;20062;-61
2023/01/20 00:43:22;;;;;;;15.90;9.73;;;;;1.90;97890.00;;;;4843618;29;20057;-61
2023/01/20 00:45:49;;;;;;;16.38;10.23;;;;;1.80;97884.00;;;;4843880;29;20433;-62
2023/01/20 00:48:15;;;;;;;16.10;10.40;;;;;1.60;97888.00;;;;4843777;29;20089;-61
2023/01/20 00:50:42;;;;;;;18.50;11.20;;;;;1.50;97886.00;;;;4857536;29;20057;-62
2023/01/20 00:53:08;;;;;;;19.30;11.40;;;;;1.30;97893.00;;;;4850877;29;20070;-62
2023/01/20 00:55:35;;;;;;;16.55;10.05;;;;;1.30;97887.00;;;;4853369;29;20046;-62
2023/01/20 00:58:01;;;;;;;15.68;10.43;;;;;1.30;97893.00;;;;4847081;29;20045;-62
2023/01/20 01:00:28;;;;;;;17.00;10.02;;;;;1.20;97890.00;;;;4843381;29;20118;-62
2023/01/20 01:02:54;;;;;;;17.25;11.55;;;;;1.20;97900.00;;;;4843793;29;20396;-62
2023/01/20 01:05:21;;;;;;;17.13;11.48;;;;;1.20;97899.00;;;;4842755;29;20050;-62
2023/01/20 01:07:48;;;;;;;17.73;10.68;;;;;1.10;97901.00;;;;4842382;29;20046;-61
2023/01/20 01:10:15;;;;;;;19.58;10.38;;;;;1.00;97900.00;;;;4843582;29;20098;-62
2023/01/20 01:12:42;;;;;;;16.50;10.85;;;;;1.00;97899.00;;;;4843422;29;20501;-62
2023/01/20 01:15:09;;;;;;;14.85;10.00;;;;;0.90;97894.00;;;;4842919;29;20049;-62
2023/01/20 01:17:35;;;;;;;17.05;10.57;;;;;0.90;97901.00;;;;4843474;29;20042;-61
2023/01/20 01:20:03;;;;;;;16.27;10.40;;;;;0.80;97906.00;;;;4843153;29;20050;-60
2023/01/20 01:22:31;;;;;;;14.48;10.10;;;;;0.80;97907.00;;;;4843069;29;20050;-61
2023/01/20 01:24:58;;;;;;;16.38;11.68;;;;;0.80;97916.00;;;;4842956;29;20064;-61
2023/01/20 01:27:27;;;;;;;15.75;10.25;;;;;0.80;97912.00;;;;4843043;29;20086;-61
2023/01/20 01:29:54;;;;;;;17.05;11.00;;;;;0.90;97913.00;;;;4858282;29;20050;-61
2023/01/20 01:32:22;;;;;;;17.35;10.88;;;;;0.90;97918.00;;;;4842748;29;20054;-62
2023/01/20 01:34:48;;;;;;;14.50;10.60;;;;;1.00;97926.00;;;;4842587;29;20050;-60
2023/01/20 01:37:15;;;;;;;16.85;10.85;;;;;1.00;97926.00;;;;4842991;29;20054;-60
2023/01/20 01:39:41;;;;;;;16.10;10.48;;;;;1.00;97925.00;;;;4842948;29;20094;-62
2023/01/20 01:42:12;;;;;;;19.17;11.00;;;;;1.00;97933.00;;;;4842979;29;20050;-62
2023/01/20 01:45:10;;;;;;;16.33;10.35;;;;;1.00;97930.00;;;;4841116;29;20054;-61
2023/01/20 01:47:47;;;;;;;18.25;10.75;;;;;1.00;97938.00;;;;4842881;29;20102;-62
2023/01/20 01:50:23;;;;;;;19.20;11.90;;;;;1.00;97931.00;;;;4843531;29;20478;-61
2023/01/20 01:52:54;;;;;;;14.93;10.32;;;;;0.90;97931.00;;;;4842735;29;20415;-60
2023/01/20 01:55:26;;;;;;;16.70;11.40;;;;;0.90;97938.00;;;;4842247;29;20052;-61
2023/01/20 01:57:53;;;;;;;16.08;10.63;;;;;1.00;97947.00;;;;4842935;29;20042;-62
2023/01/20 02:00:20;;;;;;;16.35;10.85;;;;;1.00;97947.00;;;;4843062;29;20133;-60
2023/01/20 02:02:47;;;;;;;16.90;10.48;;;;;0.80;97955.00;;;;4841114;29;20057;-61
2023/01/20 02:05:15;;;;;;;15.98;10.93;;;;;0.80;97951.00;;;;4856192;29;20106;-61
2023/01/20 02:07:45;;;;;;;15.48;10.68;;;;;0.80;97957.00;;;;4843010;29;20135;-61
2023/01/20 02:10:12;;;;;;;18.98;10.75;;;;;0.90;97964.00;;;;4842309;29;20049;-60
2023/01/20 02:12:41;;;;;;;17.75;10.88;;;;;0.90;97960.00;;;;4842523;29;20046;-60
2023/01/20 02:15:08;;;;;;;16.08;11.25;;;;;0.90;97954.00;;;;4841968;29;20055;-60
2023/01/20 02:17:43;;;;;;;16.77;10.95;;;;;0.90;97965.00;;;;4842112;29;20086;-61
2023/01/20 02:20:41;;;;;;;15.27;11.35;;;;;1.00;97972.00;;;;4842194;29;20065;-60
2023/01/20 02:23:38;;;;;;;16.95;11.10;;;;;1.00;97971.00;;;;4842348;29;20106;-60
2023/01/20 02:26:21;;;;;;;18.58;10.88;;;;;1.10;97968.00;;;;4841433;29;20114;-60
2023/01/20 02:29:21;;;;;;;16.45;10.60;;;;;1.10;97967.00;;;;4842007;29;20433;-60
2023/01/20 02:32:10;;;;;;;18.98;11.20;;;;;1.10;97971.00;;;;4841985;29;20053;-60
2023/01/20 02:34:40;;;;;;;15.65;11.85;;;;;1.10;97985.00;;;;4842003;29;20506;-61
2023/01/20 02:37:17;;;;;;;14.68;10.68;;;;;0.90;97983.00;;;;4841689;29;20423;-60
2023/01/20 02:39:52;;;;;;;15.18;10.75;;;;;0.90;97982.00;;;;4840728;29;20119;-60
2023/01/20 02:42:29;;;;;;;16.92;11.38;;;;;0.80;97987.00;;;;4841452;29;20049;-61
2023/01/20 02:45:13;;;;;;;15.88;10.35;;;;;0.90;97992.00;;;;4841087;29;20499;-60
2023/01/20 02:48:15;;;;;;;18.77;10.52;;;;;1.00;97990.00;;;;4840343;29;20125;-61
2023/01/20 02:50:52;;;;;;;17.95;11.32;;;;;1.00;97992.00;;;;4841073;29;20069;-60
2023/01/20 02:53:21;;;;;;;15.68;11.40;;;;;1.00;97995.00;;;;4841411;29;20085;-60
2023/01/20 02:55:51;;;;;;;15.00;11.07;;;;;1.00;98006.00;;;;4841086;29;20049;-61
2023/01/20 02:58:32;;;;;;;15.45;11.05;;;;;1.00;98000.00;;;;4840704;29;20184;-60
2023/01/20 03:01:06;;;;;;;20.77;13.57;;;;;1.00;98007.00;;;;4841290;29;20098;-61
2023/01/20 03:03:37;;;;;;;17.58;12.93;;;;;0.80;98005.00;;;;4841157;29;20050;-61
2023/01/20 03:06:09;;;;;;;18.13;12.15;;;;;0.70;97997.00;;;;4854839;29;20065;-61
2023/01/20 03:08:39;;;;;;;18.60;13.10;;;;;0.60;98014.00;;;;4841211;29;20061;-61
2023/01/20 03:11:07;;;;;;;16.90;11.88;;;;;0.70;98010.00;;;;4841455;29;20376;-61
2023/01/20 03:13:43;;;;;;;19.08;13.50;;;;;0.80;98010.00;;;;4841023;29;20054;-60
2023/01/20 03:16:14;;;;;;;16.20;11.45;;;;;0.80;98017.00;;;;4840625;29;20046;-61
2023/01/20 03:18:41;;;;;;;15.40;11.38;;;;;0.80;98021.00;;;;4841105;29;20046;-61
2023/01/20 03:21:08;;;;;;;17.75;11.25;;;;;0.70;98014.00;;;;4840949;29;20102;-61
2023/01/20 03:23:41;;;;;;;17.42;11.20;;;;;0.70;98023.00;;;;4841371;29;20114;-61
2023/01/20 03:26:10;;;;;;;15.45;10.48;;;;;0.40;98027.00;;;;4841534;29;20054;-62
2023/01/20 03:28:37;;;;;;;15.23;10.90;;;;;0.30;98031.00;;;;4843140;29;20107;-61
2023/01/20 03:31:11;;;;;;;17.00;10.60;;;;;0.30;98030.00;;;;4842723;29;20057;-62
2023/01/20 03:33:38;;;;;;;17.33;11.50;;;;;0.20;98034.00;;;;4842870;29;20066;-61
2023/01/20 03:36:05;;;;;;;22.10;12.13;;;;;0.10;98033.00;;;;4856846;29;20054;-60
2023/01/20 03:38:32;;;;;;;16.80;11.38;;;;;0.10;98035.00;;;;4843116;29;20353;-61
2023/01/20 03:41:25;;;;;;;17.02;11.05;;;;;0.30;98041.00;;;;4842470;29;20060;-61
2023/01/20 03:44:17;;;;;;;15.82;10.18;;;;;0.30;98043.00;;;;4856868;29;20114;-61
2023/01/20 03:47:03;;;;;;;15.70;10.18;;;;;0.20;98048.00;;;;4857241;29;20058;-61
2023/01/20 03:49:41;;;;;;;15.30;10.68;;;;;0.10;98046.00;;;;4844012;29;20049;-61
2023/01/20 03:52:22;;;;;;;15.23;10.40;;;;;0.00;98054.00;;;;4843559;29;20049;-61
2023/01/20 03:55:34;;;;;;;16.35;10.38;;;;;-0.10;98055.00;;;;4842738;29;20482;-61
2023/01/20 03:58:06;;;;;;;16.27;10.50;;;;;-0.10;98053.00;;;;4844374;29;20403;-61
2023/01/20 04:00:38;;;;;;;15.60;10.00;;;;;-0.20;98054.00;;;;4842032;29;20090;-60
2023/01/20 04:03:13;;;;;;;13.63;10.70;;;;;-0.10;98053.00;;;;4843177;29;20054;-60
2023/01/20 04:05:41;;;;;;;17.88;10.40;;;;;-0.10;98054.00;;;;4840923;29;20050;-60
2023/01/20 04:08:09;;;;;;;13.35;9.35;;;;;-0.20;98061.00;;;;4841984;29;20053;-62
2023/01/20 04:10:40;;;;;;;13.18;9.43;;;;;-0.30;98054.00;;;;4845031;29;20050;-61
2023/01/20 04:13:06;;;;;;;15.07;8.95;;;;;-0.30;98054.00;;;;4844985;29;20057;-62
2023/01/20 04:15:44;;;;;;;12.48;9.25;;;;;-0.30;98056.00;;;;4844329;29;20057;-61
2023/01/20 04:18:17;;;;;;;12.27;8.65;;;;;-0.30;98067.00;;;;4844909;29;20045;-61
2023/01/20 04:20:47;;;;;;;12.68;8.88;;;;;-0.20;98062.00;;;;4844742;29;20062;-61
2023/01/20 04:23:28;;;;;;;14.70;9.23;;;;;-0.20;98063.00;;;;4844600;29;20061;-61
2023/01/20 04:25:55;;;;;;;14.85;9.77;;;;;-0.40;98065.00;;;;4844111;29;20460;-61
2023/01/20 04:28:21;;;;;;;16.65;10.88;;;;;-0.40;98073.00;;;;4844452;29;20098;-61
2023/01/20 04:30:48;;;;;;;23.23;12.98;;;;;-0.30;98079.00;;;;4843240;29;20561;-61
2023/01/20 04:33:15;;;;;;;19.45;10.35;;;;;-0.20;98076.00;;;;4843347;29;20110;-61
2023/01/20 04:35:41;;;;;;;16.33;9.38;;;;;-0.20;98082.00;;;;4843854;29;20042;-62
2023/01/20 04:38:08;;;;;;;14.18;9.32;;;;;-0.30;98083.00;;;;4843622;29;20046;-61
2023/01/20 04:40:34;;;;;;;15.95;9.57;;;;;-0.30;98078.00;;;;4844520;29;20050;-61
2023/01/20 04:43:01;;;;;;;15.63;9.27;;;;;-0.20;98086.00;;;;4844647;29;20050;-61
2023/01/20 04:45:27;;;;;;;15.05;9.32;;;;;-0.10;98081.00;;;;4844313;29;20054;-62
2023/01/20 04:47:54;;;;;;;14.27;9.35;;;;;-0.20;98083.00;;;;4844873;29;20058;-61
2023/01/20 04:50:21;;;;;;;17.58;9.20;;;;;-0.30;98082.00;;;;4845253;29;20045;-61
2023/01/20 04:52:47;;;;;;;15.00;9.35;;;;;-0.30;98087.00;;;;4845205;29;20054;-61
2023/01/20 04:55:14;;;;;;;15.68;8.57;;;;;-0.40;98086.00;;;;4845397;29;20445;-61
2023/01/20 04:57:41;;;;;;;18.05;9.10;;;;;-0.50;98093.00;;;;4845287;29;20057;-62
2023/01/20 05:03:09;;;;;;;13.57;8.15;;;;;-0.50;98088.00;;;;5116412;23;20211;-62
2023/01/20 05:05:36;;;;;;;13.73;8.32;;;;;-0.50;98095.00;;;;4936842;29;20126;-62
2023/01/20 05:08:03;;;;;;;13.05;8.40;;;;;-0.40;98105.00;;;;4937451;29;20098;-62
2023/01/20 05:10:31;;;;;;;13.63;9.15;;;;;-0.40;98099.00;;;;4937509;29;20051;-62
2023/01/20 05:12:58;;;;;;;12.93;8.80;;;;;-0.40;98102.00;;;;4920395;29;20071;-62
2023/01/20 05:15:25;;;;;;;12.27;7.90;;;;;-0.40;98104.00;;;;4936665;29;20070;-62
2023/01/20 05:17:52;;;;;;;12.00;7.75;;;;;-0.30;98103.00;;;;4937137;29;20106;-61
2023/01/20 05:20:19;;;;;;;10.65;7.68;;;;;-0.30;98105.00;;;;4936836;29;20039;-62
2023/01/20 05:22:47;;;;;;;14.13;7.88;;;;;-0.30;98107.00;;;;4937119;29;20051;-62
2023/01/20 05:25:13;;;;;;;11.10;8.00;;;;;-0.20;98115.00;;;;4919510;29;20059;-62
2023/01/20 05:27:40;;;;;;;12.48;8.02;;;;;-0.30;98124.00;;;;4920337;29;20044;-62
2023/01/20 05:30:08;;;;;;;13.90;8.38;;;;;-0.30;98115.00;;;;4937204;29;20047;-62
2023/01/20 05:32:34;;;;;;;15.85;8.23;;;;;-0.20;98127.00;;;;4937313;29;20449;-62
2023/01/20 05:35:00;;;;;;;12.82;7.90;;;;;-0.20;98127.00;;;;4936694;29;20047;-61
2023/01/20 05:37:27;;;;;;;14.23;8.45;;;;;-0.10;98124.00;;;;4937257;29;20063;-61
2023/01/20 05:39:54;;;;;;;18.00;10.23;;;;;-0.10;98130.00;;;;4937009;29;20047;-61
2023/01/20 05:42:20;;;;;;;10.77;8.02;;;;;-0.20;98135.00;;;;4936716;29;20063;-61
2023/01/20 05:44:47;;;;;;;13.00;8.45;;;;;-0.10;98132.00;;;;4936285;29;20102;-61
2023/01/20 05:47:13;;;;;;;11.50;7.53;;;;;-0.10;98134.00;;;;4936603;29;20082;-61
2023/01/20 05:49:39;;;;;;;10.27;7.45;;;;;-0.10;98132.00;;;;4936565;29;20051;-61
2023/01/20 05:52:06;;;;;;;11.05;7.50;;;;;-0.10;98131.00;;;;4919451;29;20055;-61
2023/01/20 05:54:32;;;;;;;13.00;8.05;;;;;-0.10;98146.00;;;;4919078;29;20130;-62
2023/01/20 05:56:59;;;;;;;12.55;8.23;;;;;-0.10;98142.00;;;;4936591;29;20484;-61
2023/01/20 05:59:25;;;;;;;11.85;8.48;;;;;-0.10;98147.00;;;;4936409;29;20058;-61
2023/01/20 06:01:52;;;;;;;13.60;9.10;;;;;-0.20;98143.00;;;;4936110;29;20099;-61
2023/01/20 06:04:18;;;;;;;13.70;8.32;;;;;-0.30;98140.00;;;;4935873;29;20054;-62
2023/01/20 06:06:45;;;;;;;11.98;8.10;;;;;-0.30;98143.00;;;;4936393;29;20055;-61
2023/01/20 06:09:11;;;;;;;12.85;8.07;;;;;-0.30;98152.00;;;;4936252;29;20040;-62
2023/01/20 06:11:38;;;;;;;10.20;7.75;;;;;-0.30;98156.00;;;;4936355;29;20095;-62
2023/01/20 06:14:05;;;;;;;12.25;7.95;;;;;-0.40;98151.00;;;;4935750;29;20055;-61
2023/01/20 06:16:31;;;;;;;13.02;9.02;;;;;-0.30;98160.00;;;;4919038;29;20055;-62
2023/01/20 06:18:58;;;;;;;14.63;8.45;;;;;0.00;98161.00;;;;4919402;29;20044;-62
2023/01/20 06:21:24;;;;;;;14.13;8.75;;;;;0.00;98174.00;;;;4936140;29;20046;-61
2023/01/20 06:23:52;;;;;;;14.63;9.32;;;;;-0.10;98169.00;;;;4936183;29;20051;-62
2023/01/20 06:26:19;;;;;;;11.43;8.57;;;;;-0.10;98171.00;;;;4935567;29;20099;-62
2023/01/20 06:28:45;;;;;;;14.25;8.68;;;;;-0.10;98172.00;;;;4936406;29;20274;-62
2023/01/20 06:31:14;;;;;;;11.77;8.68;;;;;0.10;98175.00;;;;4935538;29;20102;-62
2023/01/20 06:33:41;;;;;;;13.98;9.27;;;;;0.10;98182.00;;;;4935507;29;20575;-62
2023/01/20 06:36:12;;;;;;;12.05;7.95;;;;;0.10;98176.00;;;;4935633;29;20103;-62
2023/01/20 06:38:38;;;;;;;14.57;8.48;;;;;0.20;98183.00;;;;4935984;29;20047;-61
2023/01/20 06:41:09;;;;;;;13.77;9.55;;;;;0.20;98192.00;;;;4935769;29;20044;-62
2023/01/20 06:43:38;;;;;;;14.43;9.40;;;;;0.20;98196.00;;;;4935913;29;20052;-62
2023/01/20 06:46:08;;;;;;;12.43;8.88;;;;;0.20;98188.00;;;;4935245;29;20075;-62
2023/01/20 06:48:35;;;;;;;13.95;9.25;;;;;0.20;98193.00;;;;4935718;29;20055;-62
2023/01/20 06:51:08;;;;;;;15.88;9.70;;;;;0.20;98210.00;;;;4918647;29;20103;-62
2023/01/20 06:53:35;;;;;;;14.15;9.25;;;;;0.20;98208.00;;;;4935544;29;20047;-63
2023/01/20 06:56:01;;;;;;;15.70;10.60;;;;;0.20;98201.00;;;;4934759;29;20052;-61
2023/01/20 06:58:30;;;;;;;15.27;10.10;;;;;0.30;98205.00;;;;4935450;29;20094;-61
2023/01/20 07:01:02;;;;;;;13.23;9.68;;;;;0.40;98215.00;;;;4935331;29;20115;-60
2023/01/20 07:03:29;;;;;;;14.00;9.68;;;;;0.30;98215.00;;;;4935574;29;20051;-61
2023/01/20 07:05:59;;;;;;;15.23;9.57;;;;;0.30;98221.00;;;;4934819;29;20039;-60
2023/01/20 07:08:26;;;;;;;15.18;9.82;;;;;0.30;98224.00;;;;4935385;29;20547;-61
2023/01/20 07:10:52;;;;;;;15.77;10.10;;;;;0.30;98231.00;;;;4935379;29;20052;-61
2023/01/20 07:13:19;;;;;;;13.82;10.05;;;;;0.30;98231.00;;;;4935194;29;20043;-61
2023/01/20 07:15:45;;;;;;;16.15;9.85;;;;;0.40;98236.00;;;;4934948;29;20530;-61
2023/01/20 07:18:12;;;;;;;13.52;9.27;;;;;0.50;98237.00;;;;4918510;29;20043;-61
2023/01/20 07:20:39;;;;;;;18.35;9.90;;;;;0.60;98254.00;;;;4918099;29;20044;-61
2023/01/20 07:23:06;;;;;;;14.98;9.50;;;;;0.70;98252.00;;;;4934975;29;20060;-61
2023/01/20 07:25:32;;;;;;;13.82;9.98;;;;;0.70;98255.00;;;;4934779;29;20052;-61
2023/01/20 07:27:59;;;;;;;14.18;10.02;;;;;0.70;98263.00;;;;4935121;29;20115;-62
2023/01/20 07:30:25;;;;;;;15.88;9.52;;;;;0.70;98264.00;;;;4934895;29;20039;-61
2023/01/20 07:32:52;;;;;;;13.45;9.93;;;;;0.80;98268.00;;;;4917947;29;20098;-61
2023/01/20 07:35:19;;;;;;;14.77;9.77;;;;;1.00;98273.00;;;;4934473;29;20047;-62
2023/01/20 07:37:45;;;;;;;16.67;10.65;;;;;1.10;98273.00;;;;4935209;29;20511;-62
2023/01/20 07:40:12;;;;;;;18.90;11.70;;;;;1.10;98284.00;;;;4917875;29;20051;-61
2023/01/20 07:42:39;;;;;;;16.92;10.75;;;;;1.10;98289.00;;;;4934520;29;20047;-62
2023/01/20 07:45:06;;;;;;;18.35;11.90;;;;;1.10;98293.00;;;;4934505;29;20076;-61
2023/01/20 07:47:32;;;;;;;21.00;12.73;;;;;1.10;98283.00;;;;4935314;29;20099;-61
2023/01/20 07:49:59;;;;;;;20.05;12.77;;;;;1.10;98295.00;;;;4935829;29;20493;-61
2023/01/20 07:52:25;;;;;;;21.92;13.30;;;;;1.20;98293.00;;;;4935644;29;20052;-61
2023/01/20 07:54:52;;;;;;;20.50;12.13;;;;;1.20;98293.00;;;;4934714;29;20047;-62
2023/01/20 07:57:18;;;;;;;19.58;12.60;;;;;1.20;98294.00;;;;4934990;29;20088;-61
2023/01/20 07:59:44;;;;;;;18.10;12.43;;;;;1.30;98299.00;;;;4934782;29;20052;-62
2023/01/20 08:02:11;;;;;;;20.05;12.65;;;;;1.40;98294.00;;;;4934537;29;20056;-62
2023/01/20 08:04:37;;;;;;;17.90;13.23;;;;;1.50;98302.00;;;;4917470;29;20493;-62
2023/01/20 08:07:04;;;;;;;20.63;12.63;;;;;1.60;98307.00;;;;4934865;29;20079;-62
2023/01/20 08:09:30;;;;;;;20.98;13.02;;;;;1.60;98319.00;;;;4917565;29;20420;-61
2023/01/20 08:11:57;;;;;;;17.20;12.07;;;;;1.60;98315.00;;;;4934594;29;20051;-61
2023/01/20 08:14:23;;;;;;;19.17;12.68;;;;;1.50;98313.00;;;;4941206;29;20044;-62
2023/01/20 08:16:50;;;;;;;18.13;12.65;;;;;1.60;98319.00;;;;4948317;29;20043;-62
2023/01/20 08:19:16;;;;;;;20.25;12.73;;;;;1.70;98329.00;;;;4944655;29;20131;-61
2023/01/20 08:21:43;;;;;;;26.83;13.73;;;;;1.80;98331.00;;;;4934596;29;20095;-62
2023/01/20 08:24:09;;;;;;;21.33;13.30;;;;;1.80;98334.00;;;;4933960;29;20092;-63
2023/01/20 08:26:36;;;;;;;21.42;13.70;;;;;1.80;98330.00;;;;4917808;29;20052;-62
2023/01/20 08:29:05;;;;;;;20.42;13.30;;;;;1.90;98336.00;;;;4934905;29;20043;-62
2023/01/20 08:31:33;;;;;;;22.85;14.80;;;;;1.90;98329.00;;;;4934307;29;20116;-62
2023/01/20 08:34:00;;;;;;;23.27;14.45;;;;;1.90;98331.00;;;;4917681;29;20059;-62
2023/01/20 08:36:30;;;;;;;25.08;13.25;;;;;2.00;98345.00;;;;4934278;29;20044;-63
2023/01/20 08:38:58;;;;;;;20.77;12.60;;;;;2.00;98345.00;;;;4934595;29;20103;-62
2023/01/20 08:41:32;;;;;;;21.27;13.15;;;;;2.00;98344.00;;;;4934658;29;20556;-62
2023/01/20 08:44:00;;;;;;;18.50;12.98;;;;;2.00;98342.00;;;;4917224;29;20103;-62
2023/01/20 08:46:27;;;;;;;24.38;14.80;;;;;2.10;98348.00;;;;4934062;29;20059;-61
2023/01/20 08:48:54;;;;;;;21.08;13.82;;;;;2.30;98352.00;;;;4934538;29;20050;-63
2023/01/20 08:51:25;;;;;;;25.27;14.68;;;;;2.40;98364.00;;;;4917939;29;20051;-63
2023/01/20 08:53:52;;;;;;;20.02;13.98;;;;;2.50;98362.00;;;;4917771;29;20075;-63
2023/01/20 08:56:19;;;;;;;22.50;13.68;;;;;2.50;98353.00;;;;4935901;29;20047;-63
2023/01/20 08:58:46;;;;;;;22.73;13.55;;;;;2.60;98350.00;;;;4937470;29;20079;-63
2023/01/20 09:01:16;;;;;;;26.00;15.13;;;;;2.70;98351.00;;;;4937608;29;20106;-63
2023/01/20 09:03:43;;;;;;;23.98;14.38;;;;;2.80;98354.00;;;;4938112;29;20128;-62
2023/01/20 09:06:30;;;;;;;20.88;13.50;;;;;2.80;98347.00;;;;4938140;29;20111;-63
2023/01/20 09:08:56;;;;;;;22.75;14.73;;;;;2.80;98351.00;;;;4937876;29;20055;-63
2023/01/20 09:11:23;;;;;;;21.73;14.38;;;;;2.80;98350.00;;;;4937634;29;20055;-62
2023/01/20 09:13:50;;;;;;;22.95;14.32;;;;;2.90;98368.00;;;;4920589;29;20409;-63
2023/01/20 09:16:18;;;;;;;22.98;14.13;;;;;2.90;98363.00;;;;4937009;29;20055;-62
2023/01/20 09:18:45;;;;;;;24.48;14.63;;;;;3.00;98359.00;;;;4937638;29;20070;-62
2023/01/20 09:21:11;;;;;;;21.50;15.20;;;;;3.00;98367.00;;;;4937466;29;20064;-62
2023/01/20 09:23:39;;;;;;;20.83;13.93;;;;;3.00;98370.00;;;;4937374;29;20110;-62
2023/01/20 09:26:07;;;;;;;23.73;14.65;;;;;3.10;98377.00;;;;4936921;29;20464;-62
2023/01/20 09:28:34;;;;;;;24.45;14.68;;;;;3.20;98366.00;;;;4937516;29;20051;-62
2023/01/20 09:31:08;;;;;;;23.38;13.85;;;;;3.30;98383.00;;;;4937258;29;20269;-62
2023/01/20 09:33:38;;;;;;;20.90;13.82;;;;;3.40;98381.00;;;;4936962;29;20428;-62
2023/01/20 09:36:07;;;;;;;22.08;14.13;;;;;3.60;98373.00;;;;4936494;29;20051;-61
2023/01/20 09:44:34;;;;;;;22.33;14.90;;;;;3.90;98389.00;;;;4936381;29;20047;-62
2023/01/20 09:47:20;;;;;;;21.17;12.73;;;;;4.00;98380.00;;;;4936686;29;20043;-62
2023/01/20 09:53:01;;;;;;;22.67;12.77;;;;;4.00;98399.00;;;;4936836;29;20404;-61
2023/01/20 09:55:38;;;;;;;17.88;11.35;;;;;3.90;98399.00;;;;4919158;29;20055;-61
2023/01/20 09:58:29;;;;;;;18.30;11.38;;;;;3.90;98395.00;;;;4919808;29;20420;-62
2023/01/20 10:01:05;;;;;;;16.08;10.75;;;;;3.90;98401.00;;;;4937016;29;20048;-61
2023/01/20 10:03:49;;;;;;;17.38;10.52;;;;;3.70;98395.00;;;;4937030;29;20287;-61
2023/01/20 10:06:25;;;;;;;17.30;10.43;;;;;3.50;98397.00;;;;4919055;29;20083;-61
2023/01/20 10:09:16;;;;;;;15.20;10.48;;;;;3.50;98394.00;;;;4936755;29;20532;-61
2023/01/20 10:11:46;;;;;;;15.30;10.00;;;;;3.60;98404.00;;;;4936182;29;20554;-62
2023/01/20 10:14:31;;;;;;;13.55;9.50;;;;;3.60;98407.00;;;;4918943;29;20051;-62
2023/01/20 10:17:03;;;;;;;16.83;10.60;;;;;3.70;98409.00;;;;4936328;29;20048;-61
2023/01/20 10:19:53;;;;;;;14.38;9.90;;;;;3.80;98405.00;;;;4919252;29;20051;-61
2023/01/20 10:22:31;;;;;;;14.00;9.05;;;;;3.90;98410.00;;;;4935947;29;20043;-62
2023/01/20 10:25:07;;;;;;;12.00;7.63;;;;;3.90;98413.00;;;;4935862;29;20048;-62
2023/01/20 10:27:38;;;;;;;13.68;7.65;;;;;3.80;98407.00;;;;4936059;29;20386;-62
2023/01/20 10:30:09;;;;;;;11.98;7.80;;;;;3.80;98406.00;;;;4936213;29;20108;-61
2023/01/20 10:32:39;;;;;;;13.35;6.05;;;;;3.70;98409.00;;;;4918934;29;20050;-62
2023/01/20 10:35:15;;;;;;;8.75;7.07;;;;;3.70;98408.00;;;;4935555;29;20047;-62
2023/01/20 10:37:42;;;;;;;10.52;6.30;;;;;3.70;98411.00;;;;4918893;29;20087;-62
2023/01/20 10:40:16;;;;;;;11.63;7.90;;;;;3.70;98403.00;;;;4936430;29;20090;-62
2023/01/20 10:42:54;;;;;;;13.17;7.83;;;;;3.80;98403.00;;;;4936410;29;20051;-62
2023/01/20 10:45:40;;;;;;;17.65;8.32;;;;;4.00;98402.00;;;;4936156;29;20055;-62
2023/01/20 10:48:25;;;;;;;11.50;6.80;;;;;4.00;98405.00;;;;4936293;29;20530;-62
2023/01/20 10:51:15;;;;;;;14.95;8.00;;;;;4.10;98403.00;;;;4935839;29;20035;-61
2023/01/20 10:54:09;;;;;;;15.68;8.65;;;;;4.10;98403.00;;;;4935700;29;20048;-62
2023/01/20 10:56:54;;;;;;;11.13;7.30;;;;;3.90;98406.00;;;;4935650;29;20099;-62
2023/01/20 10:59:26;;;;;;;;;;;;;4.00;98408.00;;;;4936072;29;20047;-62
2023/01/20 11:01:58;;;;;;;11.93;7.70;;;;;3.90;98405.00;;;;4935594;29;19927;-62
2023/01/20 11:04:37;;;;;;;13.15;7.78;;;;;3.90;98401.00;;;;4935086;29;20055;-62
2023/01/20 11:07:07;;;;;;;9.73;7.25;;;;;3.90;98399.00;;;;4935350;29;20044;-62
2023/01/20 11:09:38;;;;;;;9.90;7.35;;;;;3.90;98398.00;;;;4935220;29;20071;-63
2023/01/20 11:12:16;;;;;;;14.50;8.35;;;;;4.00;98396.00;;;;4935301;29;20111;-63
2023/01/20 11:14:44;;;;;;;14.82;10.48;;;;;4.10;98397.00;;;;4934770;29;20103;-62
2023/01/20 11:17:16;;;;;;;15.82;8.18;;;;;4.30;98408.00;;;;4935353;29;20104;-62
2023/01/20 11:19:54;;;;;;;16.08;8.77;;;;;4.30;98411.00;;;;4934946;29;20055;-62
2023/01/20 11:22:33;;;;;;;12.77;7.55;;;;;4.30;98419.00;;;;4935165;29;20059;-62
2023/01/20 11:25:02;;;;;;;13.73;8.85;;;;;4.20;98412.00;;;;4934928;29;20103;-62
2023/01/20 11:27:50;;;;;;;15.38;9.95;;;;;4.20;98420.00;;;;4918474;29;20050;-61
2023/01/20 11:30:25;;;;;;;12.82;7.40;;;;;4.20;98421.00;;;;4935026;29;20094;-62
2023/01/20 11:33:06;;;;;;;10.68;7.28;;;;;4.10;98413.00;;;;4935061;29;20056;-62
2023/01/20 11:35:33;;;;;;;13.77;8.50;;;;;4.20;98413.00;;;;4934576;29;20468;-62
2023/01/20 11:38:23;;;;;;;15.43;11.02;;;;;4.30;98415.00;;;;4935033;29;20044;-62
2023/01/20 11:40:53;;;;;;;26.40;21.52;;;;;4.40;98413.00;;;;4935044;29;20079;-64
2023/01/20 11:43:27;;;;;;;15.70;10.43;;;;;4.50;98410.00;;;;4917671;29;20056;-62
2023/01/20 11:46:11;;;;;;;8.65;6.90;;;;;4.70;98406.00;;;;4934476;29;20051;-63
2023/01/20 11:48:38;;;;;;;12.18;6.57;;;;;4.90;98412.00;;;;4934863;29;20047;-62
2023/01/20 11:51:16;;;;;;;11.73;6.78;;;;;5.10;98405.00;;;;4934879;29;20039;-63
2023/01/20 11:53:44;;;;;;;11.85;5.95;;;;;5.30;98407.00;;;;4917838;29;20051;-62
2023/01/20 11:56:25;;;;;;;11.48;7.22;;;;;5.40;98416.00;;;;4934409;29;20393;-63
2023/01/20 11:58:57;;;;;;;13.05;7.10;;;;;5.30;98416.00;;;;4934817;29;20050;-63
2023/01/20 12:01:28;;;;;;;10.23;6.38;;;;;5.10;98421.00;;;;4934646;29;20043;-63
2023/01/20 12:04:20;;;;;;;9.15;5.63;;;;;5.00;98423.00;;;;4934807;29;20048;-63
2023/01/20 12:06:52;;;;;;;10.20;6.32;;;;;4.90;98421.00;;;;4934883;29;20134;-64
2023/01/20 12:09:24;;;;;;;10.30;6.65;;;;;4.80;98415.00;;;;4934946;29;20457;-62
2023/01/20 12:12:08;;;;;;;11.30;6.75;;;;;4.80;98411.00;;;;4917838;29;20103;-62
2023/01/20 12:14:47;;;;;;;9.52;6.22;;;;;4.90;98433.00;;;;4934437;29;20408;-61
2023/01/20 12:17:50;;;;;;;11.45;5.40;;;;;4.80;98420.00;;;;4934747;29;20062;-62
2023/01/20 12:20:27;;;;;;;9.15;5.95;;;;;4.70;98419.00;;;;4934816;29;20076;-61
2023/01/20 12:23:19;;;;;;;10.27;6.60;;;;;4.60;98417.00;;;;4942282;29;20058;-61
2023/01/20 12:26:00;;;;;;;8.73;6.80;;;;;4.70;98429.00;;;;4945029;29;20043;-62
2023/01/20 12:28:38;;;;;;;8.73;6.05;;;;;4.70;98426.00;;;;4937300;29;20059;-62
2023/01/20 12:31:09;;;;;;;12.35;6.80;;;;;4.60;98418.00;;;;4938459;29;20047;-61
2023/01/20 12:33:44;;;;;;;14.68;7.63;;;;;4.50;98423.00;;;;4938696;29;20079;-62
2023/01/20 12:36:19;;;;;;;21.85;8.95;;;;;4.50;98415.00;;;;4937763;29;20051;-62
2023/01/20 12:38:54;;;;;;;11.27;7.85;;;;;4.40;98422.00;;;;4938784;29;20055;-62
2023/01/20 12:41:39;;;;;;;13.52;7.30;;;;;4.40;98411.00;;;;4937966;29;20103;-62
2023/01/20 12:44:53;;;;;;;14.80;8.45;;;;;4.40;98416.00;;;;4937809;29;20052;-62